Time;durP1;ratioP1;P1;durP2;ratioP2;P2;SDS_P1;SDS_P2;PMS_P1;PMS_P2;Temp;Humidity;BMP_temperature;BMP_pressure;BME280_temperature;BME280_humidity;BME280_pressure;Samples;Min_cycle;Max_cycle;Signal;HPM_P1;HPM_P2
2022/07/24 00:00:28;;;;;;;;;16.33;15.00;;;;;25.53;65.35;101757.78;5020909;28;45374;-68
2022/07/24 00:02:53;;;;;;;;;14.67;13.00;;;;;25.56;65.66;101768.47;5023446;28;45598;-69
2022/07/24 00:05:19;;;;;;;;;17.67;14.33;;;;;25.61;64.98;101760.34;5019776;28;46139;-68
2022/07/24 00:07:44;;;;;;;;;17.67;16.00;;;;;25.67;63.96;101761.38;5023002;28;45366;-68
2022/07/24 00:10:10;;;;;;;;;19.00;18.67;;;;;25.61;64.96;101771.47;5023444;28;45344;-69
2022/07/24 00:12:36;;;;;;;;;24.50;21.25;;;;;25.49;65.72;101762.94;5021910;28;45298;-67
2022/07/24 00:15:03;;;;;;;;;69.75;56.00;;;;;25.51;65.60;101769.13;5018197;28;46864;-67
2022/07/24 00:17:28;;;;;;;;;26.00;26.00;;;;;25.62;65.55;101772.31;5019146;28;45232;-67
2022/07/24 00:19:54;;;;;;;;;27.75;26.00;;;;;25.73;64.08;101766.88;5010852;28;45375;-67
2022/07/24 00:22:19;;;;;;;;;24.50;22.50;;;;;25.77;63.75;101761.75;5017948;28;45522;-68
2022/07/24 00:24:44;;;;;;;;;21.50;20.75;;;;;25.79;64.96;101765.16;5017937;28;46392;-67
2022/07/24 00:27:10;;;;;;;;;22.00;20.25;;;;;25.68;64.53;101761.16;5014927;28;45311;-67
2022/07/24 00:29:35;;;;;;;;;20.00;19.33;;;;;25.65;64.63;101756.00;5015814;28;45368;-67
2022/07/24 00:32:01;;;;;;;;;24.67;21.00;;;;;25.68;64.93;101760.28;5020670;28;45635;-67
2022/07/24 00:34:26;;;;;;;;;17.67;17.67;;;;;25.65;65.18;101752.38;5010692;28;45577;-67
2022/07/24 00:36:52;;;;;;;;;16.67;16.67;;;;;25.51;64.30;101744.06;5024008;28;45338;-68
2022/07/24 00:39:17;;;;;;;;;17.67;15.33;;;;;25.51;65.66;101737.66;5017794;28;45433;-67
2022/07/24 00:41:42;;;;;;;;;17.00;16.33;;;;;25.49;66.25;101735.13;5020283;28;45374;-67
2022/07/24 00:44:14;;;;;;;;;18.00;16.67;;;;;25.33;66.44;101730.06;5018214;28;45417;-68
2022/07/24 00:46:42;;;;;;;;;17.33;17.33;;;;;25.17;67.39;101730.56;5016692;28;45356;-67
2022/07/24 00:49:13;;;;;;;;;23.33;17.33;;;;;25.03;68.76;101721.44;5018341;28;45361;-66
2022/07/24 00:51:41;;;;;;;;;17.67;16.00;;;;;24.93;68.66;101722.97;5020000;28;45311;-66
2022/07/24 00:54:08;;;;;;;;;19.67;18.33;;;;;24.98;67.26;101717.59;5021897;28;46082;-66
2022/07/24 00:56:34;;;;;;;;;15.33;15.00;;;;;24.96;67.04;101711.41;5019214;28;45358;-66
2022/07/24 00:59:00;;;;;;;;;19.00;18.00;;;;;24.96;68.43;101716.97;5021091;28;45402;-67
2022/07/24 01:01:26;;;;;;;;;16.67;16.67;;;;;24.92;68.74;101708.19;5024661;28;45501;-66
2022/07/24 01:03:52;;;;;;;;;17.33;16.67;;;;;24.91;68.58;101709.31;5018731;28;45974;-66
2022/07/24 01:06:17;;;;;;;;;20.50;16.50;;;;;24.81;70.26;101706.94;5023882;28;45256;-66
2022/07/24 01:08:43;;;;;;;;;16.00;16.00;;;;;24.74;69.81;101708.88;5015136;28;45309;-66
2022/07/24 01:11:09;;;;;;;;;17.75;15.75;;;;;24.72;70.44;101711.03;5014505;28;45643;-66
2022/07/24 01:13:35;;;;;;;;;14.33;14.00;;;;;24.73;70.59;101707.19;5018587;28;45759;-66
2022/07/24 01:16:01;;;;;;;;;20.00;18.00;;;;;24.70;70.78;101710.38;5019842;28;45466;-66
2022/07/24 01:18:26;;;;;;;;;15.33;15.33;;;;;24.64;71.15;101719.59;5019647;28;45347;-66
2022/07/24 01:20:52;;;;;;;;;20.00;20.00;;;;;24.54;70.96;101705.31;5017293;28;45306;-66
2022/07/24 01:23:17;;;;;;;;;16.67;14.00;;;;;24.56;71.26;101711.47;5020782;28;46203;-66
2022/07/24 01:25:43;;;;;;;;;20.25;19.50;;;;;24.55;70.70;101720.88;5016095;28;45393;-66
2022/07/24 01:28:08;;;;;;;;;21.25;20.00;;;;;24.61;70.23;101716.41;5024240;28;45406;-66
2022/07/24 01:30:33;;;;;;;;;19.67;19.00;;;;;24.64;69.84;101710.41;5022351;28;45342;-66
2022/07/24 01:32:59;;;;;;;;;26.75;19.50;;;;;24.65;71.17;101715.75;5021022;28;45503;-66
2022/07/24 01:35:25;;;;;;;;;29.25;27.50;;;;;24.53;71.50;101713.84;5019454;28;45440;-66
2022/07/24 01:37:52;;;;;;;;;28.75;26.75;;;;;24.51;70.84;101716.00;5021962;28;45378;-66
2022/07/24 01:40:17;;;;;;;;;38.25;33.25;;;;;24.44;71.99;101714.09;5019246;28;45246;-66
2022/07/24 01:42:43;;;;;;;;;49.25;39.25;;;;;24.51;71.40;101714.06;5022304;28;46305;-66
2022/07/24 01:45:09;;;;;;;;;50.75;40.75;;;;;24.46;71.98;101727.75;5016390;28;45428;-66
2022/07/24 01:47:34;;;;;;;;;56.00;45.25;;;;;24.30;73.08;101720.72;5022136;28;45537;-67
2022/07/24 01:50:00;;;;;;;;;57.50;43.75;;;;;24.13;74.01;101694.44;5012602;28;45327;-66
2022/07/24 01:52:25;;;;;;;;;51.25;40.75;;;;;24.11;74.64;101713.22;5022914;28;46312;-67
2022/07/24 01:54:52;;;;;;;;;46.50;36.50;;;;;24.11;74.84;101706.84;5016863;28;45979;-66
2022/07/24 01:57:17;;;;;;;;;52.75;39.75;;;;;24.12;74.20;101708.50;5016391;28;45557;-67
2022/07/24 01:59:43;;;;;;;;;43.50;36.50;;;;;24.07;75.30;101706.41;5014450;28;45492;-65
2022/07/24 02:02:08;;;;;;;;;41.25;33.50;;;;;24.09;74.83;101708.97;5022771;28;46635;-66
2022/07/24 02:04:33;;;;;;;;;31.50;30.75;;;;;24.00;75.53;101709.16;5008706;28;45513;-67
2022/07/24 02:06:59;;;;;;;;;30.50;29.00;;;;;23.96;76.49;101698.72;5021800;28;45327;-67
2022/07/24 02:09:25;;;;;;;;;30.00;28.75;;;;;23.91;75.83;101701.25;5019789;28;45402;-66
2022/07/24 02:11:50;;;;;;;;;24.00;22.25;;;;;23.83;76.95;101702.31;5019757;28;45317;-66
2022/07/24 02:14:16;;;;;;;;;25.75;25.75;;;;;23.82;76.89;101699.75;5017453;28;45430;-68
2022/07/24 02:16:41;;;;;;;;;21.50;20.50;;;;;23.80;77.58;101700.00;5018825;28;45460;-66
2022/07/24 02:19:06;;;;;;;;;20.67;18.00;;;;;23.87;76.28;101698.06;5015043;28;45528;-67
2022/07/24 02:21:32;;;;;;;;;25.00;23.50;;;;;23.89;77.49;101686.75;5018183;28;46470;-66
2022/07/24 02:23:57;;;;;;;;;22.00;20.50;;;;;23.86;77.39;101695.50;5035074;28;45406;-67
2022/07/24 02:26:22;;;;;;;;;21.00;19.00;;;;;23.84;76.58;101684.59;5016138;28;45441;-67
2022/07/24 02:28:48;;;;;;;;;21.00;19.25;;;;;23.81;77.65;101679.50;5016488;28;45404;-67
2022/07/24 02:31:13;;;;;;;;;25.50;22.25;;;;;23.75;77.69;101680.31;5017085;28;46531;-67
2022/07/24 02:33:39;;;;;;;;;24.67;21.00;;;;;23.85;76.41;101680.78;5018736;28;45350;-67
2022/07/24 02:36:04;;;;;;;;;24.75;21.50;;;;;23.85;76.91;101679.91;5022447;28;45248;-66
2022/07/24 02:38:30;;;;;;;;;19.00;17.67;;;;;23.80;77.52;101675.00;5018678;28;45326;-67
2022/07/24 02:40:56;;;;;;;;;23.75;22.25;;;;;23.79;77.58;101676.06;5017932;28;45421;-67
2022/07/24 02:43:21;;;;;;;;;24.67;21.33;;;;;23.80;77.81;101675.00;5019269;28;45425;-67
2022/07/24 02:45:46;;;;;;;;;18.33;18.33;;;;;23.88;76.84;101673.94;5019872;28;45505;-67
2022/07/24 02:48:12;;;;;;;;;24.00;20.00;;;;;23.85;77.62;101675.22;5021034;28;45440;-67
2022/07/24 02:50:38;;;;;;;;;20.33;18.00;;;;;23.79;77.67;101670.53;5017941;28;46226;-67
2022/07/24 02:53:04;;;;;;;;;22.67;21.33;;;;;23.78;77.08;101663.25;5020606;28;45339;-67
2022/07/24 02:55:29;;;;;;;;;19.00;17.00;;;;;23.70;78.14;101654.28;5026427;28;45555;-66
2022/07/24 02:57:55;;;;;;;;;17.67;16.67;;;;;23.75;77.43;101658.13;5019987;28;46301;-67
2022/07/24 03:00:21;;;;;;;;;22.00;18.33;;;;;23.81;76.69;101665.63;5014848;28;45481;-66
2022/07/24 03:02:46;;;;;;;;;21.25;20.25;;;;;23.70;76.88;101652.38;5017426;28;45373;-67
2022/07/24 03:05:12;;;;;;;;;19.00;16.67;;;;;23.71;77.35;101651.31;5012277;28;45311;-67
2022/07/24 03:07:39;;;;;;;;;18.00;17.00;;;;;23.81;76.67;101650.91;5016477;28;45466;-67
2022/07/24 03:10:06;;;;;;;;;19.00;18.67;;;;;23.67;77.54;101647.22;5018245;28;46662;-67
2022/07/24 03:12:31;;;;;;;;;18.33;18.00;;;;;23.62;78.35;101641.47;5013809;28;45478;-67
2022/07/24 03:14:57;;;;;;;;;18.67;18.67;;;;;23.65;77.51;101647.47;5020752;28;45313;-68
2022/07/24 03:17:22;;;;;;;;;18.67;17.00;;;;;23.64;77.35;101633.81;5012670;28;45239;-67
2022/07/24 03:19:47;;;;;;;;;17.33;17.33;;;;;23.72;76.44;101647.47;5019353;28;47161;-67
2022/07/24 03:22:13;;;;;;;;;22.67;20.00;;;;;23.65;77.08;101649.38;5010008;28;45536;-67
2022/07/24 03:24:38;;;;;;;;;19.67;19.67;;;;;23.59;76.86;101641.91;5016330;28;45521;-67
2022/07/24 03:27:04;;;;;;;;;19.00;18.00;;;;;23.56;77.55;101645.09;5022207;28;45300;-66
2022/07/24 03:29:29;;;;;;;;;15.67;15.67;;;;;23.65;76.78;101654.94;5020892;28;45595;-66
2022/07/24 03:31:54;;;;;;;;;20.33;17.67;;;;;23.56;77.29;101654.28;5027178;28;46520;-66
2022/07/24 03:34:20;;;;;;;;;19.67;18.67;;;;;23.53;77.64;101645.53;5021854;28;45401;-67
2022/07/24 03:36:45;;;;;;;;;20.33;19.00;;;;;23.50;78.40;101643.19;5028756;28;45339;-66
2022/07/24 03:39:10;;;;;;;;;19.75;19.75;;;;;23.43;79.09;101658.94;5011334;28;46675;-67
2022/07/24 03:41:36;;;;;;;;;22.25;22.25;;;;;23.48;79.06;101650.84;5024137;28;45459;-67
2022/07/24 03:44:01;;;;;;;;;22.75;22.50;;;;;23.29;79.21;101636.72;5019344;28;45391;-67
2022/07/24 03:46:28;;;;;;;;;24.50;21.00;;;;;23.32;80.42;101656.75;5022005;28;45327;-67
2022/07/24 03:48:54;;;;;;;;;26.00;26.00;;;;;23.38;80.46;101655.94;5018636;28;46246;-67
2022/07/24 03:51:19;;;;;;;;;28.50;26.50;;;;;23.28;80.95;101656.34;5025402;28;45426;-67
2022/07/24 03:53:44;;;;;;;;;30.50;29.50;;;;;23.22;80.57;101641.41;5019208;28;45392;-67
2022/07/24 03:56:10;;;;;;;;;26.75;24.75;;;;;23.29;80.45;101656.13;5025739;28;45379;-67
2022/07/24 03:58:36;;;;;;;;;29.00;25.00;;;;;23.42;79.84;101649.75;5018496;28;47257;-67
2022/07/24 04:01:02;;;;;;;;;24.00;23.00;;;;;23.35;79.56;101651.66;5021638;28;45449;-67
2022/07/24 04:03:27;;;;;;;;;20.00;18.25;;;;;23.32;79.02;101651.22;5021225;28;46473;-67
2022/07/24 04:05:52;;;;;;;;;22.50;19.25;;;;;23.38;78.74;101633.75;5025196;28;45496;-67
2022/07/24 04:08:18;;;;;;;;;23.00;21.75;;;;;23.44;78.51;101652.31;5022369;28;45559;-67
2022/07/24 04:10:43;;;;;;;;;22.25;22.25;;;;;23.46;78.79;101650.16;5020469;28;45331;-67
2022/07/24 04:13:09;;;;;;;;;26.25;22.00;;;;;23.45;79.19;101645.72;5006875;28;45406;-67
2022/07/24 04:15:34;;;;;;;;;32.25;29.50;;;;;23.38;79.48;101662.31;5019274;28;45659;-69
2022/07/24 04:17:59;;;;;;;;;29.75;25.75;;;;;23.39;79.52;101660.41;5023229;28;45620;-67
2022/07/24 04:20:25;;;;;;;;;25.25;24.25;;;;;23.35;79.97;101668.31;5016682;28;45276;-67
2022/07/24 04:22:50;;;;;;;;;25.00;25.00;;;;;23.33;80.35;101659.34;5024378;28;45697;-68
2022/07/24 04:25:15;;;;;;;;;28.25;25.50;;;;;23.27;80.84;101661.03;5033191;28;45392;-67
2022/07/24 04:27:43;;;;;;;;;30.00;24.00;;;;;23.28;80.94;101662.75;5024870;28;46170;-67
2022/07/24 04:30:10;;;;;;;;;26.75;26.75;;;;;23.44;79.91;101663.41;5021363;28;45420;-67
2022/07/24 04:32:35;;;;;;;;;27.25;23.75;;;;;23.28;80.36;101659.97;5024919;28;45331;-67
2022/07/24 04:35:01;;;;;;;;;27.75;25.75;;;;;23.30;80.81;101657.81;5019379;28;45256;-67
2022/07/24 04:37:26;;;;;;;;;25.00;25.00;;;;;23.33;80.26;101664.88;5024947;28;45168;-64
2022/07/24 04:39:52;;;;;;;;;26.25;25.25;;;;;23.40;81.18;101659.34;5016335;28;45446;-65
2022/07/24 04:42:17;;;;;;;;;23.50;22.50;;;;;23.48;79.77;101645.31;5031655;28;45510;-65
2022/07/24 04:44:42;;;;;;;;;30.00;28.50;;;;;23.53;79.57;101648.28;5018471;28;45653;-67
2022/07/24 04:47:08;;;;;;;;;26.75;26.25;;;;;23.64;78.94;101659.63;5024354;28;45470;-67
2022/07/24 04:49:33;;;;;;;;;26.75;24.25;;;;;23.64;78.21;101650.44;5015890;28;45319;-67
2022/07/24 04:51:58;;;;;;;;;23.00;23.00;;;;;23.71;78.07;101651.31;5007199;28;45437;-67
2022/07/24 04:54:24;;;;;;;;;26.75;24.75;;;;;23.67;77.52;101644.47;5018159;28;45536;-66
2022/07/24 04:56:49;;;;;;;;;23.50;22.25;;;;;23.77;77.51;101652.38;5024146;28;46402;-66
2022/07/24 04:59:14;;;;;;;;;21.25;19.25;;;;;23.81;77.35;101648.97;5015968;28;45403;-65
2022/07/24 05:01:40;;;;;;;;;21.75;21.75;;;;;23.86;76.45;101659.44;5022109;28;45367;-66
2022/07/24 05:04:05;;;;;;;;;15.67;15.00;;;;;23.97;74.88;101647.66;5021226;28;45519;-66
2022/07/24 05:06:31;;;;;;;;;23.00;18.00;;;;;24.12;73.72;101652.97;5023789;28;46710;-65
2022/07/24 05:08:56;;;;;;;;;19.00;19.00;;;;;24.23;73.03;101650.47;5018441;28;45443;-66
2022/07/24 05:11:21;;;;;;;;;21.00;18.67;;;;;24.20;73.76;101645.31;5020625;28;45343;-66
2022/07/24 05:13:47;;;;;;;;;16.67;16.67;;;;;24.30;72.44;101651.28;5020802;28;45311;-66
2022/07/24 05:16:12;;;;;;;;;21.00;19.67;;;;;24.38;72.65;101650.22;5021542;28;45539;-66
2022/07/24 05:18:37;;;;;;;;;16.00;15.00;;;;;24.38;70.96;101639.97;5021374;28;45604;-66
2022/07/24 05:21:03;;;;;;;;;18.67;18.67;;;;;24.50;71.65;101656.78;5022713;28;45478;-66
2022/07/24 05:23:28;;;;;;;;;20.25;17.50;;;;;24.50;72.03;101656.78;5020895;28;45325;-66
2022/07/24 05:25:53;;;;;;;;;15.33;14.67;;;;;24.73;70.52;101659.06;5022275;28;46295;-66
2022/07/24 05:28:19;;;;;;;;;17.33;16.67;;;;;24.91;67.55;101641.72;5020220;28;45345;-66
2022/07/24 05:30:44;;;;;;;;;19.33;18.33;;;;;25.54;66.48;101642.59;5023412;28;45571;-66
2022/07/24 05:33:10;;;;;;;;;15.33;14.33;;;;;26.51;61.74;101652.28;5019739;28;45354;-67
2022/07/24 05:35:35;;;;;;;;;17.67;16.33;;;;;26.51;61.24;101650.34;5021925;28;45635;-66
2022/07/24 05:38:00;;;;;;;;;17.33;16.33;;;;;26.20;62.29;101654.06;5007870;28;45577;-67
2022/07/24 05:40:26;;;;;;;;;18.00;16.33;;;;;26.06;62.22;101651.63;5027648;28;45442;-67
2022/07/24 05:42:51;;;;;;;;;15.00;14.33;;;;;26.05;62.04;101650.78;5023007;28;45544;-66
2022/07/24 05:45:16;;;;;;;;;13.00;13.00;;;;;26.03;61.69;101652.06;5018065;28;46538;-67
2022/07/24 05:47:42;;;;;;;;;17.67;16.67;;;;;26.06;61.14;101655.28;5023600;28;45306;-66
2022/07/24 05:50:12;;;;;;;;;16.00;16.00;;;;;26.00;60.59;101647.84;5016762;28;45406;-66
2022/07/24 05:52:39;;;;;;;;;17.33;15.67;;;;;25.99;61.08;101648.91;5022862;28;45261;-67
2022/07/24 05:55:05;;;;;;;;;16.00;13.67;;;;;26.14;61.19;101654.97;5014808;28;46875;-66
2022/07/24 05:57:31;;;;;;;;;18.33;15.67;;;;;26.16;61.66;101651.94;5021112;28;45320;-66
2022/07/24 05:59:56;;;;;;;;;16.67;15.33;;;;;26.24;61.13;101644.16;5013344;28;45553;-65
2022/07/24 06:02:22;;;;;;;;;16.33;14.33;;;;;26.74;59.47;101653.25;5019679;28;45486;-65
2022/07/24 06:04:47;;;;;;;;;12.33;12.33;;;;;28.55;54.23;101643.56;5012003;28;45399;-66
2022/07/24 06:07:13;;;;;;;;;17.00;14.33;;;;;29.52;49.33;101641.66;5017176;28;45402;-66
2022/07/24 06:09:39;;;;;;;;;18.33;15.00;;;;;28.84;50.22;101645.34;5013121;28;46293;-68
2022/07/24 06:12:05;;;;;;;;;12.00;12.00;;;;;28.27;51.75;101635.94;5015211;28;45653;-66
2022/07/24 06:14:31;;;;;;;;;15.33;13.33;;;;;27.94;52.86;101638.44;5018577;28;48170;-66
2022/07/24 06:16:56;;;;;;;;;15.67;15.00;;;;;27.90;52.77;101638.09;5023060;28;45844;-66
2022/07/24 06:19:22;;;;;;;;;13.00;13.00;;;;;27.75;52.86;101634.91;5016239;28;45584;-66
2022/07/24 06:21:47;;;;;;;;;17.33;16.33;;;;;27.80;52.91;101643.41;5018617;28;45303;-66
2022/07/24 06:24:13;;;;;;;;;12.67;12.00;;;;;27.72;53.75;101638.19;5019900;28;46717;-66
2022/07/24 06:26:38;;;;;;;;;9.00;9.00;;;;;27.71;52.90;101633.69;5022493;28;45162;-67
2022/07/24 06:29:04;;;;;;;;;17.67;15.67;;;;;27.76;52.23;101636.63;5019808;28;45476;-67
2022/07/24 06:31:29;;;;;;;;;15.67;13.00;;;;;27.77;52.83;101629.91;5022189;28;45271;-67
2022/07/24 06:33:54;;;;;;;;;14.00;14.00;;;;;27.87;52.00;101628.25;5017906;28;45465;-67
2022/07/24 06:36:20;;;;;;;;;13.67;13.67;;;;;27.89;52.88;101630.81;5020849;28;45302;-66
2022/07/24 06:38:45;;;;;;;;;17.00;15.00;;;;;27.86;51.86;101631.28;5019094;28;45373;-67
2022/07/24 06:41:11;;;;;;;;;14.67;14.67;;;;;27.97;52.35;101624.00;5021442;28;45668;-67
2022/07/24 06:43:36;;;;;;;;;12.00;12.00;;;;;28.05;52.51;101632.03;5017310;28;45247;-67
2022/07/24 06:46:01;;;;;;;;;17.33;14.67;;;;;28.05;51.96;101623.66;5016848;28;45525;-67
2022/07/24 06:48:27;;;;;;;;;16.00;15.00;;;;;28.13;52.25;101626.03;5017419;28;45303;-67
2022/07/24 06:50:52;;;;;;;;;14.33;12.33;;;;;28.18;51.80;101620.63;5011177;28;45275;-67
2022/07/24 06:53:17;;;;;;;;;16.67;14.00;;;;;28.18;51.66;101617.84;5018241;28;47116;-67
2022/07/24 06:55:43;;;;;;;;;17.67;15.33;;;;;28.11;51.95;101628.25;5020882;28;45898;-67
2022/07/24 06:58:08;;;;;;;;;17.67;15.33;;;;;28.23;52.22;101621.59;5020600;28;45277;-67
2022/07/24 07:00:34;;;;;;;;;17.00;17.00;;;;;28.26;51.38;101617.47;5017819;28;45337;-67
2022/07/24 07:02:59;;;;;;;;;12.67;12.33;;;;;28.30;52.35;101632.66;5018690;28;45643;-67
2022/07/24 07:05:24;;;;;;;;;17.67;15.67;;;;;28.37;52.08;101624.13;5018353;28;45348;-67
2022/07/24 07:07:50;;;;;;;;;18.67;17.67;;;;;28.54;51.33;101627.88;5021796;28;45346;-67
2022/07/24 07:10:15;;;;;;;;;19.67;18.00;;;;;28.53;51.25;101624.22;5017348;28;45600;-67
2022/07/24 07:12:41;;;;;;;;;15.33;15.00;;;;;28.67;51.34;101628.44;5021103;28;46461;-68
2022/07/24 07:15:07;;;;;;;;;18.33;14.67;;;;;28.73;51.29;101620.16;5014856;28;45478;-68
2022/07/24 07:17:33;;;;;;;;;17.67;16.67;;;;;28.88;50.86;101623.31;5018770;28;45271;-67
2022/07/24 07:19:58;;;;;;;;;15.33;15.33;;;;;28.98;50.02;101623.53;5016358;28;45449;-66
2022/07/24 07:22:23;;;;;;;;;15.33;15.33;;;;;29.07;50.48;101615.59;5016656;28;45435;-66
2022/07/24 07:24:49;;;;;;;;;19.33;17.67;;;;;29.10;50.45;101627.13;5013568;28;45389;-66
2022/07/24 07:27:14;;;;;;;;;20.00;18.67;;;;;29.17;50.09;101622.22;5020360;28;45540;-66
2022/07/24 07:29:39;;;;;;;;;18.67;18.67;;;;;29.27;50.02;101622.41;5015469;28;45280;-66
2022/07/24 07:32:05;;;;;;;;;20.00;18.75;;;;;29.38;49.63;101618.72;5020809;28;45339;-66
2022/07/24 07:34:30;;;;;;;;;21.50;19.25;;;;;29.45;49.28;101617.72;5015179;28;45327;-66
2022/07/24 07:36:56;;;;;;;;;18.00;16.33;;;;;29.47;48.95;101615.53;5022082;28;45435;-67
2022/07/24 07:39:21;;;;;;;;;14.33;14.00;;;;;29.54;48.84;101611.47;5015956;28;45403;-66
2022/07/24 07:41:46;;;;;;;;;22.50;19.75;;;;;29.59;49.35;101617.13;5021803;28;45470;-66
2022/07/24 07:44:12;;;;;;;;;20.00;19.00;;;;;29.59;48.37;101613.50;5015585;28;45339;-66
2022/07/24 07:46:37;;;;;;;;;18.00;17.75;;;;;29.57;48.71;101612.91;5022094;28;45244;-67
2022/07/24 07:49:03;;;;;;;;;19.50;18.00;;;;;29.54;48.89;101607.81;5016446;28;45275;-67
2022/07/24 07:51:29;;;;;;;;;19.33;19.00;;;;;29.78;49.06;101606.56;5021436;28;45434;-67
2022/07/24 07:53:54;;;;;;;;;18.00;18.00;;;;;29.84;48.61;101611.13;5014149;28;45422;-67
2022/07/24 07:56:20;;;;;;;;;18.00;18.00;;;;;30.02;48.58;101610.91;5016121;28;45351;-67
2022/07/24 07:58:45;;;;;;;;;19.25;19.25;;;;;30.09;48.02;101607.91;5034752;28;45669;-67
2022/07/24 08:01:11;;;;;;;;;16.50;15.25;;;;;30.04;48.02;101605.03;5032645;28;47263;-67
2022/07/24 08:03:36;;;;;;;;;16.25;16.25;;;;;29.99;48.08;101600.19;5019060;28;45481;-67
2022/07/24 08:06:03;;;;;;;;;18.00;17.75;;;;;30.15;48.56;101602.13;5019488;28;45658;-67
2022/07/24 08:08:29;;;;;;;;;16.25;16.25;;;;;29.88;47.98;101598.28;5018832;28;45522;-68
2022/07/24 08:10:55;;;;;;;;;18.75;16.75;;;;;29.86;47.93;101603.31;5032814;28;47163;-67
2022/07/24 08:13:20;;;;;;;;;24.50;20.25;;;;;30.05;48.57;101595.50;5018440;28;45255;-66
2022/07/24 08:15:45;;;;;;;;;17.00;17.00;;;;;30.45;47.47;101595.25;5018873;28;45455;-67
2022/07/24 08:18:11;;;;;;;;;17.75;15.00;;;;;30.67;47.92;101592.50;5022462;28;45312;-67
2022/07/24 08:20:36;;;;;;;;;19.25;18.25;;;;;30.82;46.09;101593.53;5019316;28;45794;-67
2022/07/24 08:23:02;;;;;;;;;22.00;22.00;;;;;30.94;45.39;101583.00;5013868;28;45344;-66
2022/07/24 08:25:27;;;;;;;;;16.25;16.25;;;;;31.04;45.37;101590.69;5022454;28;45378;-67
2022/07/24 08:27:52;;;;;;;;;20.50;19.00;;;;;31.18;44.86;101589.19;5022780;28;45954;-66
2022/07/24 08:30:18;;;;;;;;;19.00;19.00;;;;;31.29;44.33;101595.75;5022352;28;46510;-66
2022/07/24 08:32:44;;;;;;;;;19.75;19.75;;;;;31.25;43.13;101589.81;5024026;28;45325;-66
2022/07/24 08:35:11;;;;;;;;;19.75;18.00;;;;;31.35;42.95;101591.84;5017664;28;45433;-67
2022/07/24 08:37:39;;;;;;;;;19.50;19.50;;;;;31.47;43.03;101586.94;5024616;28;45539;-66
2022/07/24 08:40:05;;;;;;;;;16.00;16.00;;;;;31.47;43.24;101592.56;5035891;28;47662;-72
2022/07/24 08:42:31;;;;;;;;;16.00;16.00;;;;;31.80;42.57;101573.75;5020540;28;45264;-67
2022/07/24 08:44:56;;;;;;;;;16.00;16.00;;;;;31.69;41.80;101576.50;5017352;28;45514;-67
2022/07/24 08:47:24;;;;;;;;;21.50;20.00;;;;;31.47;41.75;101572.91;5024992;28;45464;-66
2022/07/24 08:49:53;;;;;;;;;19.50;18.00;;;;;31.58;42.30;101565.38;5014389;28;46292;-67
2022/07/24 08:52:21;;;;;;;;;17.00;17.00;;;;;32.03;41.44;101576.16;5019903;28;45401;-69
2022/07/24 08:54:47;;;;;;;;;17.00;15.67;;;;;32.18;40.19;101573.47;5012061;28;45165;-67
2022/07/24 08:57:12;;;;;;;;;15.33;15.33;;;;;32.39;39.82;101560.38;5023996;28;45411;-68
2022/07/24 08:59:37;;;;;;;;;20.33;18.67;;;;;32.63;40.28;101563.56;5010486;28;47181;-67
2022/07/24 09:02:03;;;;;;;;;18.33;17.33;;;;;32.77;39.76;101556.34;5021832;28;45287;-67
2022/07/24 09:04:36;;;;;;;;;18.00;16.67;;;;;32.64;39.24;101563.28;5016917;28;46025;-67
2022/07/24 09:07:19;;;;;;;;;14.50;14.00;;;;;32.76;37.31;101554.63;5020630;28;45649;-67
2022/07/24 09:10:02;;;;;;;;;15.00;14.00;;;;;33.09;35.96;101542.91;5019581;28;46727;-67
2022/07/24 09:12:38;;;;;;;;;16.00;15.00;;;;;33.11;35.67;101539.78;5017437;28;45430;-67
2022/07/24 09:15:16;;;;;;;;;17.33;17.00;;;;;33.31;35.76;101544.66;5016743;28;45376;-66
2022/07/24 09:17:53;;;;;;;;;16.00;13.67;;;;;32.78;35.12;101541.13;5019047;28;45186;-66
2022/07/24 09:20:20;;;;;;;;;10.67;10.67;;;;;31.94;36.70;101541.22;5032599;28;47313;-67
2022/07/24 09:22:45;;;;;;;;;15.33;14.00;;;;;32.62;36.19;101542.16;5023103;28;45387;-66
2022/07/24 09:25:23;;;;;;;;;13.33;13.33;;;;;33.28;35.21;101528.28;5016523;28;45361;-66
2022/07/24 09:28:01;;;;;;;;;13.33;11.33;;;;;33.76;33.17;101530.53;5022649;28;45429;-67
2022/07/24 09:30:28;;;;;;;;;11.67;11.67;;;;;34.14;33.16;101525.38;5015166;28;47315;-67
2022/07/24 09:33:13;;;;;;;;;12.33;10.33;;;;;33.74;32.07;101532.81;5022994;28;45395;-67
2022/07/24 09:35:41;;;;;;;;;13.33;11.67;;;;;33.87;31.47;101520.97;5016715;28;45413;-67
2022/07/24 09:38:26;;;;;;;;;8.00;8.00;;;;;34.29;32.19;101526.22;5021516;28;46182;-67
2022/07/24 09:40:55;;;;;;;;;11.67;11.33;;;;;34.60;30.16;101524.09;5017185;28;46415;-67
2022/07/24 09:43:39;;;;;;;;;11.67;11.00;;;;;34.80;30.69;101516.69;5017660;28;45260;-67
2022/07/24 09:46:06;;;;;;;;;10.67;10.67;;;;;35.13;30.34;101513.06;5014964;28;45312;-67
2022/07/24 09:48:39;;;;;;;;;12.00;12.00;;;;;34.91;29.84;101507.03;5021110;28;45266;-67
2022/07/24 09:51:09;;;;;;;;;8.67;8.67;;;;;35.14;30.49;101511.94;5017532;28;46220;-68
2022/07/24 09:53:35;;;;;;;;;11.00;11.00;;;;;35.44;30.16;101502.38;5020087;28;45624;-67
2022/07/24 09:56:04;;;;;;;;;8.00;6.67;;;;;34.98;30.19;101507.53;5018934;28;45542;-68
2022/07/24 09:58:31;;;;;;;;;13.00;13.00;;;;;34.96;28.79;101498.50;5013718;28;45481;-67
2022/07/24 10:00:59;;;;;;;;;14.33;12.00;;;;;35.48;28.38;101492.19;5015189;28;45374;-67
2022/07/24 10:03:30;;;;;;;;;10.00;10.00;;;;;35.55;27.97;101497.47;5020104;28;45401;-67
2022/07/24 10:05:58;;;;;;;;;10.33;10.33;;;;;35.60;29.12;101491.75;5017705;28;45274;-67
2022/07/24 10:08:25;;;;;;;;;11.33;11.33;;;;;35.92;27.69;101488.34;5021503;28;45828;-67
2022/07/24 10:10:51;;;;;;;;;12.00;11.67;;;;;36.36;28.57;101496.63;5020318;28;45397;-67
2022/07/24 10:13:17;;;;;;;;;9.33;9.33;;;;;36.66;26.62;101493.41;5020960;28;45694;-68
2022/07/24 10:15:52;;;;;;;;;9.33;9.33;;;;;36.97;27.44;101488.94;5016295;28;45369;-68
2022/07/24 10:18:21;;;;;;;;;11.25;8.75;;;;;35.99;27.56;101489.69;5017323;28;45378;-67
2022/07/24 10:20:47;;;;;;;;;11.00;11.00;;;;;35.67;27.64;101484.63;5012387;28;46491;-69
2022/07/24 10:23:25;;;;;;;;;8.67;8.33;;;;;35.88;26.15;101488.94;5016989;28;45345;-67
2022/07/24 10:26:00;;;;;;;;;8.33;7.33;;;;;36.59;27.12;101493.75;5019572;28;45395;-67
2022/07/24 10:28:42;;;;;;;;;10.33;10.33;;;;;37.11;25.24;101493.84;5019505;28;45489;-68
2022/07/24 10:31:11;;;;;;;;;10.33;9.00;;;;;37.46;26.44;101490.44;5028014;28;47792;-67
2022/07/24 10:33:39;;;;;;;;;9.00;7.67;;;;;36.96;24.75;101478.78;5018803;28;45350;-66
2022/07/24 10:36:15;;;;;;;;;7.33;7.33;;;;;37.49;25.40;101475.63;5021017;28;45364;-66
2022/07/24 10:38:48;;;;;;;;;11.67;10.00;;;;;37.64;23.50;101474.53;5019771;28;45482;-67
2022/07/24 10:41:21;;;;;;;;;11.00;9.67;;;;;37.11;24.68;101472.03;5020842;28;46556;-67
2022/07/24 10:44:11;;;;;;;;;10.33;9.33;;;;;37.84;24.86;101470.47;5016449;28;45372;-68
2022/07/24 10:46:59;;;;;;;;;11.67;11.67;;;;;38.01;22.63;101473.53;5014141;28;45228;-68
2022/07/24 10:49:48;;;;;;;;;7.67;7.67;;;;;38.22;24.23;101474.81;5010446;28;45533;-68
2022/07/24 10:52:27;;;;;;;;;10.75;10.75;;;;;38.59;24.44;101470.03;5020095;28;46387;-68
2022/07/24 10:55:29;;;;;;;;;9.00;9.00;;;;;38.78;22.96;101462.22;5011991;28;45331;-68
2022/07/24 10:57:59;;;;;;;;;12.00;10.00;;;;;38.56;23.63;101463.03;5011644;28;45206;-68
2022/07/24 11:00:32;;;;;;;;;10.67;10.00;;;;;38.99;22.61;101454.06;5019544;28;45371;-68
2022/07/24 11:03:01;;;;;;;;;9.33;9.00;;;;;38.78;22.10;101450.88;5018942;28;47027;-68
2022/07/24 11:05:31;;;;;;;;;11.67;10.00;;;;;38.74;23.13;101446.97;5017005;28;45320;-68
2022/07/24 11:08:11;;;;;;;;;11.50;10.25;;;;;37.52;23.45;101438.16;5021087;28;45172;-69